Time;durP1;ratioP1;P1;durP2;ratioP2;P2;SDS_P1;SDS_P2;PMS_P1;PMS_P2;Temp;Humidity;BMP_temperature;BMP_pressure;BME280_temperature;BME280_humidity;BME280_pressure;Samples;Min_cycle;Max_cycle;Signal;HPM_P1;HPM_P2
2021/05/12 00:01:03;;;;;;;2.10;1.90;;;20.60;57.00;;;;;;5009334;28;20540;-42
2021/05/12 00:03:29;;;;;;;3.43;1.90;;;20.60;57.10;;;;;;5011064;28;20557;-42
2021/05/12 00:05:57;;;;;;;1.70;1.60;;;20.60;57.10;;;;;;5011063;28;20205;-43
2021/05/12 00:08:24;;;;;;;2.50;1.50;;;20.70;57.10;;;;;;5011139;28;20205;-42
2021/05/12 00:10:49;;;;;;;1.27;1.10;;;20.60;56.80;;;;;;5008481;28;20540;-42
2021/05/12 00:13:15;;;;;;;1.83;1.30;;;20.60;56.90;;;;;;5002098;28;21068;-42
2021/05/12 00:15:40;;;;;;;1.60;1.40;;;20.60;56.90;;;;;;5010432;28;20642;-42
2021/05/12 00:18:10;;;;;;;2.10;1.40;;;20.60;56.80;;;;;;5008396;28;20198;-43
2021/05/12 00:20:36;;;;;;;2.17;1.50;;;20.60;56.70;;;;;;5009788;28;20285;-42
2021/05/12 00:23:08;;;;;;;1.60;1.50;;;20.50;56.40;;;;;;5004978;28;20541;-42
2021/05/12 00:25:34;;;;;;;1.80;1.70;;;20.40;56.90;;;;;;5004482;28;20288;-41
2021/05/12 00:28:00;;;;;;;4.40;1.53;;;20.40;57.20;;;;;;5002981;28;20524;-44
2021/05/12 00:30:25;;;;;;;1.47;1.37;;;20.50;57.40;;;;;;5001560;28;20206;-42
2021/05/12 00:32:52;;;;;;;1.70;1.50;;;20.50;57.50;;;;;;5003911;28;20234;-43
2021/05/12 00:35:18;;;;;;;2.70;2.20;;;20.50;57.30;;;;;;4999607;28;20191;-42
2021/05/12 00:37:44;;;;;;;1.70;1.60;;;20.40;57.10;;;;;;4999560;28;20481;-42
2021/05/12 00:40:11;;;;;;;1.60;1.50;;;20.30;57.00;;;;;;5010918;28;20445;-42
2021/05/12 00:42:37;;;;;;;1.67;1.57;;;20.20;57.10;;;;;;5005618;28;20449;-42
2021/05/12 00:45:06;;;;;;;1.80;1.70;;;20.20;57.50;;;;;;5006077;28;20437;-42
2021/05/12 00:47:32;;;;;;;2.00;1.90;;;20.20;57.60;;;;;;5000402;28;20687;-42
2021/05/12 00:49:59;;;;;;;1.60;1.47;;;19.90;57.90;;;;;;5000536;28;20532;-42
2021/05/12 00:52:25;;;;;;;1.70;1.60;;;19.80;58.30;;;;;;5001842;28;20948;-42
2021/05/12 00:54:52;;;;;;;2.20;1.60;;;19.50;58.90;;;;;;5006662;28;22117;-42
2021/05/12 00:57:18;;;;;;;1.50;1.40;;;19.10;60.60;;;;;;5006494;28;20448;-42
2021/05/12 00:59:45;;;;;;;1.50;1.40;;;19.10;60.50;;;;;;5002793;28;21341;-42
2021/05/12 01:02:11;;;;;;;1.80;1.70;;;18.90;60.80;;;;;;5002361;28;20495;-42
2021/05/12 01:04:38;;;;;;;2.47;1.80;;;18.70;61.40;;;;;;5002291;28;20464;-42
2021/05/12 01:07:05;;;;;;;2.90;1.67;;;18.70;61.20;;;;;;5002666;28;20445;-42
2021/05/12 01:09:31;;;;;;;2.20;2.10;;;18.60;61.30;;;;;;5003568;28;20480;-41
2021/05/12 01:11:57;;;;;;;2.13;1.93;;;18.50;61.80;;;;;;5003752;28;20812;-42
2021/05/12 01:14:24;;;;;;;2.03;1.80;;;18.40;62.00;;;;;;5000729;28;20444;-42
2021/05/12 01:27:07;;;;;;;2.20;2.00;;;17.60;63.90;;;;;;5001011;28;20217;-42
2021/05/12 01:29:33;;;;;;;2.33;1.70;;;17.30;64.50;;;;;;5002081;28;20235;-41
2021/05/12 01:31:58;;;;;;;1.80;1.43;;;17.10;64.40;;;;;;5003347;28;20831;-43
2021/05/12 01:34:24;;;;;;;1.50;1.40;;;17.10;64.60;;;;;;5003220;28;20560;-42
2021/05/12 01:36:51;;;;;;;3.03;1.70;;;17.10;64.50;;;;;;5008762;28;20673;-42
2021/05/12 01:39:18;;;;;;;1.73;1.57;;;17.00;64.60;;;;;;5005987;28;20353;-42
2021/05/12 01:41:43;;;;;;;2.70;1.60;;;16.90;64.80;;;;;;4996774;28;20441;-42
2021/05/12 01:44:10;;;;;;;1.40;1.30;;;17.00;64.70;;;;;;5010404;28;20441;-41
2021/05/12 01:46:40;;;;;;;1.57;1.47;;;17.10;64.80;;;;;;5000976;28;20662;-41
2021/05/12 01:49:07;;;;;;;1.60;1.50;;;17.20;64.60;;;;;;5003180;28;20441;-43
2021/05/12 01:51:33;;;;;;;1.60;1.50;;;17.40;63.80;;;;;;5008753;28;20504;-43
2021/05/12 01:53:59;;;;;;;1.70;1.57;;;17.40;63.40;;;;;;5007153;28;20493;-44
2021/05/12 01:56:24;;;;;;;1.80;1.70;;;17.50;63.60;;;;;;5009074;28;20520;-42
2021/05/12 01:58:50;;;;;;;2.17;1.97;;;17.40;63.10;;;;;;5003744;28;20201;-45
2021/05/12 02:01:16;;;;;;;2.60;1.60;;;17.10;63.80;;;;;;5008212;28;20263;-42
2021/05/12 02:03:42;;;;;;;2.30;1.70;;;17.20;64.00;;;;;;5001679;28;20336;-41
2021/05/12 02:06:07;;;;;;;2.60;1.90;;;17.10;63.90;;;;;;5006132;28;20194;-41
2021/05/12 02:08:33;;;;;;;3.83;1.77;;;17.10;64.20;;;;;;5007201;28;20295;-42
2021/05/12 02:11:01;;;;;;;2.27;1.47;;;17.00;64.00;;;;;;5009339;28;20190;-41
2021/05/12 02:13:29;;;;;;;2.50;2.10;;;16.80;64.90;;;;;;5003170;28;20288;-42
2021/05/12 02:15:56;;;;;;;2.33;2.13;;;16.80;65.30;;;;;;5010114;28;20821;-42
2021/05/12 02:18:21;;;;;;;2.87;2.10;;;16.80;65.50;;;;;;5010911;28;20512;-42
2021/05/12 02:20:47;;;;;;;3.27;2.67;;;16.70;65.20;;;;;;5007215;28;20528;-42
2021/05/12 02:23:16;;;;;;;2.83;2.50;;;16.80;65.30;;;;;;5002890;28;20273;-42
2021/05/12 02:25:42;;;;;;;2.83;1.80;;;16.80;64.60;;;;;;5007115;28;20226;-43
2021/05/12 02:28:08;;;;;;;2.93;2.57;;;16.70;65.10;;;;;;5000738;28;21042;-43
2021/05/12 02:30:35;;;;;;;3.73;2.23;;;16.60;65.50;;;;;;5006870;28;20471;-42
2021/05/12 02:33:00;;;;;;;3.40;2.30;;;16.60;66.10;;;;;;5008619;28;20534;-44
2021/05/12 02:35:26;;;;;;;3.80;2.83;;;16.70;65.50;;;;;;5008142;28;20453;-44
2021/05/12 02:37:53;;;;;;;3.40;3.10;;;16.90;64.80;;;;;;5003413;28;20476;-42
2021/05/12 02:40:20;;;;;;;7.30;3.00;;;16.70;64.70;;;;;;5005807;28;20437;-43
2021/05/12 02:42:46;;;;;;;7.10;3.13;;;16.60;65.10;;;;;;5006183;28;20457;-42
2021/05/12 02:45:14;;;;;;;4.50;3.70;;;16.60;64.70;;;;;;5010488;28;20819;-42
2021/05/12 02:47:40;;;;;;;5.10;3.53;;;16.50;65.10;;;;;;5009187;28;20269;-41
2021/05/12 02:50:11;;;;;;;3.50;3.20;;;16.30;65.60;;;;;;5008689;28;20815;-42
2021/05/12 02:52:39;;;;;;;3.07;2.73;;;16.50;65.10;;;;;;5002466;28;20504;-42
2021/05/12 02:55:07;;;;;;;3.33;3.03;;;16.70;64.70;;;;;;5006330;28;20475;-43
2021/05/12 02:57:33;;;;;;;4.63;2.93;;;16.80;63.90;;;;;;5008428;28;20448;-43
2021/05/12 02:59:58;;;;;;;4.00;3.00;;;16.80;64.00;;;;;;5001516;28;20792;-43
2021/05/12 03:02:24;;;;;;;3.13;2.83;;;16.60;63.70;;;;;;5000144;28;20201;-42
2021/05/12 03:04:50;;;;;;;4.43;3.53;;;16.70;64.00;;;;;;5006624;28;20725;-43
2021/05/12 03:07:15;;;;;;;3.57;3.23;;;16.80;63.80;;;;;;5009781;28;20194;-43
2021/05/12 03:09:41;;;;;;;3.30;2.90;;;17.00;63.40;;;;;;5005452;28;20194;-42
2021/05/12 03:12:07;;;;;;;4.90;3.50;;;17.10;62.60;;;;;;5011163;28;20715;-42
2021/05/12 03:14:33;;;;;;;3.73;3.27;;;17.20;62.40;;;;;;5007683;28;20194;-43
2021/05/12 03:16:58;;;;;;;4.20;3.43;;;17.00;62.60;;;;;;5011259;28;20445;-42
2021/05/12 03:19:26;;;;;;;3.80;3.33;;;17.00;62.90;;;;;;5009000;28;20195;-43
2021/05/12 03:21:54;;;;;;;3.57;3.27;;;17.00;62.90;;;;;;5004799;28;20195;-44
2021/05/12 03:24:20;;;;;;;9.20;2.97;;;17.10;62.90;;;;;;5006161;28;20445;-42
2021/05/12 03:26:45;;;;;;;4.20;3.80;;;17.20;62.50;;;;;;5005146;28;20511;-42
2021/05/12 03:29:11;;;;;;;5.40;3.93;;;17.30;61.80;;;;;;5013171;28;20736;-43
2021/05/12 03:31:37;;;;;;;4.83;3.20;;;17.40;61.50;;;;;;5008336;28;20240;-43
2021/05/12 03:34:02;;;;;;;4.97;4.53;;;17.40;61.60;;;;;;5008256;28;20272;-43
2021/05/12 03:36:28;;;;;;;5.07;3.43;;;17.50;61.90;;;;;;5005321;28;20277;-42
2021/05/12 03:38:54;;;;;;;5.73;4.43;;;17.60;61.70;;;;;;5010761;28;20727;-42
2021/05/12 03:41:19;;;;;;;4.20;3.80;;;17.50;61.10;;;;;;5013012;28;20210;-43
2021/05/12 03:43:45;;;;;;;6.03;4.33;;;17.60;61.20;;;;;;5012277;28;20222;-42
2021/05/12 03:46:11;;;;;;;4.87;4.20;;;17.50;61.00;;;;;;5002371;28;20198;-42
2021/05/12 03:48:36;;;;;;;8.77;5.23;;;17.20;61.60;;;;;;5008869;28;20647;-41
2021/05/12 03:51:02;;;;;;;4.90;4.47;;;17.10;62.10;;;;;;5011816;28;20190;-42
2021/05/12 03:53:28;;;;;;;4.80;4.40;;;17.00;62.40;;;;;;5008549;28;20226;-42
2021/05/12 03:55:54;;;;;;;6.07;4.60;;;17.00;63.00;;;;;;5008113;28;20220;-42
2021/05/12 03:58:20;;;;;;;5.87;5.37;;;16.90;62.80;;;;;;5002457;28;20491;-42
2021/05/12 04:00:46;;;;;;;6.33;5.33;;;16.90;63.20;;;;;;5000606;28;20198;-42
2021/05/12 04:03:12;;;;;;;7.20;6.03;;;16.90;63.30;;;;;;5001670;28;20447;-42
2021/05/12 04:05:39;;;;;;;5.70;5.00;;;17.00;63.10;;;;;;5005188;28;20530;-41
2021/05/12 04:08:05;;;;;;;5.90;5.40;;;16.90;63.50;;;;;;5000035;28;20532;-42
2021/05/12 04:10:31;;;;;;;6.17;5.37;;;17.00;63.40;;;;;;5003676;28;20444;-42
2021/05/12 04:12:56;;;;;;;7.27;6.57;;;17.00;63.40;;;;;;5004462;28;20823;-42
2021/05/12 04:15:22;;;;;;;6.10;5.50;;;17.10;63.30;;;;;;5006248;28;20673;-42
2021/05/12 04:17:48;;;;;;;7.13;5.60;;;17.10;63.00;;;;;;5005520;28;20650;-45
2021/05/12 04:20:16;;;;;;;7.70;6.00;;;17.20;63.10;;;;;;5003255;28;20320;-41
2021/05/12 04:22:41;;;;;;;9.80;6.93;;;17.10;63.00;;;;;;5005176;28;20202;-42
2021/05/12 04:25:10;;;;;;;8.53;6.83;;;17.10;62.70;;;;;;5007842;28;20456;-42
2021/05/12 04:27:36;;;;;;;6.67;6.07;;;17.30;62.50;;;;;;5005862;28;20654;-42
2021/05/12 04:30:04;;;;;;;7.57;6.77;;;17.30;62.40;;;;;;5004038;28;20494;-43
2021/05/12 04:32:30;;;;;;;9.10;7.20;;;17.20;62.00;;;;;;5003171;28;20248;-41
2021/05/12 04:34:55;;;;;;;11.97;7.67;;;17.00;62.90;;;;;;5003933;28;20441;-42
2021/05/12 04:37:21;;;;;;;9.73;7.50;;;17.00;63.10;;;;;;5004634;28;20190;-42
2021/05/12 04:39:46;;;;;;;7.50;6.80;;;17.20;62.90;;;;;;5000867;28;20191;-42
2021/05/12 04:42:12;;;;;;;8.70;7.40;;;17.00;62.70;;;;;;5001306;28;20198;-42
2021/05/12 04:44:37;;;;;;;11.10;7.37;;;17.10;63.30;;;;;;5005765;28;20201;-42
2021/05/12 04:47:03;;;;;;;8.50;7.47;;;17.10;63.30;;;;;;5001680;28;20198;-42
2021/05/12 04:49:29;;;;;;;11.23;7.53;;;17.00;64.00;;;;;;5004950;28;20202;-42
2021/05/12 04:51:54;;;;;;;8.13;7.33;;;17.00;63.60;;;;;;5001023;28;20205;-42
2021/05/12 04:54:20;;;;;;;8.83;7.10;;;17.10;63.50;;;;;;5004627;28;20201;-41
2021/05/12 04:56:45;;;;;;;8.23;7.40;;;17.10;63.30;;;;;;5011688;28;20280;-43
2021/05/12 04:59:11;;;;;;;6.70;6.10;;;17.20;63.10;;;;;;5006828;28;20191;-42
2021/05/12 05:01:37;;;;;;;8.27;6.40;;;17.20;62.90;;;;;;5003671;28;20277;-41
2021/05/12 05:04:04;;;;;;;8.27;6.33;;;17.40;63.50;;;;;;5010885;28;20190;-42
2021/05/12 05:06:29;;;;;;;9.17;7.00;;;17.40;62.50;;;;;;5011676;28;20201;-41
2021/05/12 05:08:55;;;;;;;11.73;5.93;;;17.40;62.20;;;;;;5010280;28;20448;-44
2021/05/12 05:11:21;;;;;;;7.63;6.47;;;17.40;61.80;;;;;;5010233;28;20558;-42
2021/05/12 05:13:46;;;;;;;7.87;7.00;;;17.40;62.00;;;;;;5004241;28;20233;-42
2021/05/12 05:16:12;;;;;;;6.77;5.50;;;17.40;61.80;;;;;;5010317;28;20205;-43
2021/05/12 05:18:38;;;;;;;8.07;6.00;;;17.10;62.10;;;;;;5002704;28;20666;-42
2021/05/12 05:21:06;;;;;;;7.70;6.23;;;17.10;62.30;;;;;;5003352;28;20198;-43
2021/05/12 05:23:35;;;;;;;10.20;5.17;;;16.80;62.70;;;;;;4999480;28;20501;-42
2021/05/12 05:26:02;;;;;;;6.43;5.83;;;16.70;63.20;;;;;;5003063;28;20464;-43
2021/05/12 05:28:28;;;;;;;6.60;5.70;;;16.60;63.30;;;;;;5000693;28;20787;-42
2021/05/12 05:30:53;;;;;;;7.03;6.37;;;16.70;63.00;;;;;;5004249;28;20472;-43
2021/05/12 05:33:19;;;;;;;11.53;5.77;;;16.40;63.20;;;;;;5001374;28;20229;-43
2021/05/12 05:35:44;;;;;;;5.93;5.20;;;16.60;63.30;;;;;;5006879;28;20199;-41
2021/05/12 05:38:10;;;;;;;9.33;4.70;;;16.70;62.90;;;;;;5002483;28;20230;-43
2021/05/12 05:40:36;;;;;;;5.73;5.10;;;16.70;62.70;;;;;;5008587;28;20256;-42
2021/05/12 05:43:03;;;;;;;9.30;5.17;;;16.70;62.80;;;;;;5002058;28;20216;-42
2021/05/12 05:45:30;;;;;;;5.73;4.83;;;16.80;62.70;;;;;;5002908;28;20264;-42
2021/05/12 05:47:56;;;;;;;6.00;5.47;;;16.90;62.50;;;;;;5001998;28;20428;-42
2021/05/12 05:50:22;;;;;;;7.13;4.87;;;16.90;62.40;;;;;;5006569;28;20441;-42
2021/05/12 05:52:48;;;;;;;7.37;5.50;;;17.00;62.80;;;;;;5000509;28;20288;-42
2021/05/12 05:55:14;;;;;;;6.00;5.40;;;17.10;62.30;;;;;;5007484;28;20444;-41
2021/05/12 05:57:40;;;;;;;8.20;5.50;;;17.20;61.90;;;;;;5004108;28;20944;-41
2021/05/12 06:00:07;;;;;;;5.80;5.20;;;17.30;61.70;;;;;;5000930;28;20459;-42
2021/05/12 06:02:35;;;;;;;5.83;5.10;;;17.40;61.80;;;;;;5007041;28;20444;-42
2021/05/12 06:05:03;;;;;;;6.37;5.07;;;17.50;61.60;;;;;;5012838;28;20441;-43
2021/05/12 06:07:29;;;;;;;5.87;5.00;;;17.50;61.00;;;;;;5002038;28;20856;-42
2021/05/12 06:09:55;;;;;;;7.17;5.53;;;17.60;60.80;;;;;;5006022;28;20448;-42
2021/05/12 06:12:20;;;;;;;5.80;5.27;;;17.60;60.80;;;;;;5002763;28;20225;-42
2021/05/12 06:14:46;;;;;;;5.63;5.07;;;17.70;60.80;;;;;;5008460;28;20194;-42
2021/05/12 06:17:12;;;;;;;8.03;5.60;;;17.70;60.60;;;;;;5006398;28;20210;-43
2021/05/12 06:19:37;;;;;;;6.43;5.57;;;17.70;60.40;;;;;;4998969;28;20321;-42
2021/05/12 06:22:03;;;;;;;6.17;4.37;;;17.80;60.40;;;;;;5005722;28;20220;-42
2021/05/12 06:24:29;;;;;;;5.20;4.50;;;17.80;60.30;;;;;;5004411;28;20205;-43
2021/05/12 06:26:54;;;;;;;6.63;4.73;;;17.90;60.10;;;;;;4997619;28;20657;-43
2021/05/12 06:29:20;;;;;;;5.60;4.50;;;17.90;60.00;;;;;;5007631;28;20208;-44
2021/05/12 06:31:46;;;;;;;7.07;5.17;;;17.80;59.70;;;;;;5009225;28;20979;-41
2021/05/12 06:34:11;;;;;;;6.13;4.40;;;17.80;59.80;;;;;;5010756;28;20268;-41
2021/05/12 06:36:37;;;;;;;9.83;4.90;;;17.70;59.70;;;;;;5009891;28;20269;-43
2021/05/12 06:39:03;;;;;;;4.77;4.37;;;17.50;59.70;;;;;;5004665;28;20225;-46
2021/05/12 06:41:31;;;;;;;5.03;4.53;;;17.60;59.80;;;;;;5015554;28;20243;-42
2021/05/12 06:43:56;;;;;;;4.17;3.77;;;17.60;59.90;;;;;;4999478;28;20425;-42
2021/05/12 06:46:22;;;;;;;6.80;4.47;;;17.60;59.30;;;;;;5011981;28;20844;-43
2021/05/12 06:48:48;;;;;;;5.37;4.10;;;17.40;59.70;;;;;;5006539;28;20198;-43
2021/05/12 06:51:14;;;;;;;4.40;3.90;;;17.50;59.80;;;;;;5010853;28;20190;-43
2021/05/12 06:53:39;;;;;;;10.83;4.00;;;17.40;59.50;;;;;;5010692;28;20258;-40
2021/05/12 06:56:05;;;;;;;5.17;3.80;;;17.40;59.60;;;;;;5010559;28;20212;-40
2021/05/12 06:58:32;;;;;;;4.47;3.80;;;17.50;59.70;;;;;;5007615;28;20248;-41
2021/05/12 07:00:58;;;;;;;3.70;3.40;;;17.40;59.70;;;;;;5005693;28;20202;-40
2021/05/12 07:03:24;;;;;;;5.10;3.60;;;17.20;59.80;;;;;;5011521;28;20451;-41
2021/05/12 07:05:51;;;;;;;4.83;4.23;;;17.20;60.00;;;;;;5009895;28;20248;-40
2021/05/12 07:08:17;;;;;;;3.80;3.43;;;17.10;59.90;;;;;;5012965;28;20200;-43
2021/05/12 07:10:42;;;;;;;4.97;3.67;;;17.20;60.00;;;;;;5012473;28;20912;-41
2021/05/12 07:13:08;;;;;;;4.27;3.77;;;17.10;60.40;;;;;;5006483;28;20660;-41
2021/05/12 07:15:34;;;;;;;4.67;4.23;;;17.00;60.50;;;;;;5012004;28;20202;-41
2021/05/12 07:18:00;;;;;;;4.70;3.13;;;17.00;60.60;;;;;;5009419;28;20607;-42
2021/05/12 07:20:25;;;;;;;3.67;3.37;;;16.80;60.90;;;;;;5012819;28;20201;-41
2021/05/12 07:22:51;;;;;;;4.80;3.37;;;16.50;60.90;;;;;;5011398;28;20209;-44
2021/05/12 07:25:17;;;;;;;3.57;3.20;;;16.30;61.50;;;;;;5011294;28;20197;-43
2021/05/12 07:27:42;;;;;;;5.20;3.20;;;16.40;61.80;;;;;;5003924;28;20274;-41
2021/05/12 07:30:09;;;;;;;4.67;2.70;;;16.40;61.90;;;;;;5012556;28;20191;-41
2021/05/12 07:32:35;;;;;;;3.80;3.40;;;16.50;61.80;;;;;;5003448;28;20226;-42
2021/05/12 07:35:01;;;;;;;4.93;3.50;;;16.40;61.10;;;;;;5011529;28;20441;-41
2021/05/12 07:37:27;;;;;;;6.87;3.50;;;16.60;61.50;;;;;;5006361;28;20473;-42
2021/05/12 07:39:53;;;;;;;3.90;3.60;;;16.50;61.30;;;;;;5013040;28;20592;-41
2021/05/12 07:42:19;;;;;;;7.57;3.13;;;16.70;61.20;;;;;;5010595;28;20437;-41
2021/05/12 07:44:48;;;;;;;2.63;2.43;;;16.80;61.10;;;;;;5003452;28;20217;-40
2021/05/12 07:47:14;;;;;;;7.97;2.87;;;16.90;60.80;;;;;;5011049;28;20460;-41
2021/05/12 07:49:40;;;;;;;4.17;3.17;;;16.80;60.60;;;;;;5009295;28;20933;-41
2021/05/12 07:52:12;;;;;;;6.40;4.80;;;16.70;60.90;;;;;;5012019;28;20619;-42
2021/05/12 07:54:38;;;;;;;7.27;3.30;;;16.40;60.40;;;;;;5007517;28;21714;-42
2021/05/12 07:57:05;;;;;;;3.40;3.10;;;16.40;61.40;;;;;;5007791;28;20433;-41
2021/05/12 07:59:30;;;;;;;7.17;3.20;;;16.50;61.30;;;;;;5011435;28;20476;-41
2021/05/12 08:01:56;;;;;;;4.10;3.47;;;16.70;62.20;;;;;;5010277;28;20466;-42
2021/05/12 08:04:21;;;;;;;7.03;3.33;;;16.80;60.70;;;;;;5012411;28;20190;-43
2021/05/12 08:06:47;;;;;;;5.37;3.07;;;16.90;61.00;;;;;;5008390;28;20202;-43
2021/05/12 08:09:12;;;;;;;3.93;3.43;;;16.90;60.30;;;;;;5007896;28;20269;-44
2021/05/12 08:11:38;;;;;;;3.40;3.10;;;16.90;60.00;;;;;;5008150;28;20190;-41
2021/05/12 08:14:04;;;;;;;5.33;3.77;;;16.70;60.30;;;;;;5002829;28;20330;-41
2021/05/12 08:16:30;;;;;;;3.93;3.33;;;16.50;60.40;;;;;;5012121;28;20296;-40
2021/05/12 08:18:56;;;;;;;4.97;3.73;;;16.50;61.30;;;;;;5012133;28;20855;-41
2021/05/12 08:21:24;;;;;;;3.90;3.20;;;16.70;61.10;;;;;;5009155;28;20444;-41
2021/05/12 08:26:16;;;;;;;3.80;3.17;;;16.90;59.90;;;;;;5009377;28;21265;-42
2021/05/12 08:28:42;;;;;;;6.30;3.10;;;16.70;60.10;;;;;;5010534;28;20190;-41
2021/05/12 08:31:07;;;;;;;4.67;3.30;;;16.70;59.90;;;;;;5012691;28;20433;-41
2021/05/12 08:33:34;;;;;;;4.90;2.90;;;16.60;60.60;;;;;;5006153;28;20232;-43
2021/05/12 08:35:59;;;;;;;4.40;2.40;;;16.70;60.40;;;;;;5005402;28;20351;-41
2021/05/12 08:38:25;;;;;;;3.03;2.70;;;16.70;60.20;;;;;;5007180;28;21030;-43
2021/05/12 08:40:53;;;;;;;5.70;2.93;;;16.40;60.20;;;;;;5004119;28;20198;-44
2021/05/12 08:43:19;;;;;;;7.50;2.53;;;16.50;60.40;;;;;;5015256;28;20251;-42
2021/05/12 08:45:46;;;;;;;2.53;2.33;;;16.50;60.20;;;;;;4993675;28;20954;-42
2021/05/12 08:48:16;;;;;;;7.93;2.50;;;16.60;60.60;;;;;;5010215;28;21040;-41
2021/05/12 08:50:43;;;;;;;3.13;2.93;;;16.60;60.60;;;;;;5021361;28;20459;-40
2021/05/12 08:53:09;;;;;;;4.50;3.10;;;16.70;60.60;;;;;;5022373;28;20487;-42
2021/05/12 08:55:36;;;;;;;3.60;3.00;;;16.70;60.40;;;;;;5010320;28;20680;-41
2021/05/12 08:58:03;;;;;;;5.77;3.20;;;16.80;60.50;;;;;;5012701;28;20433;-41
2021/05/12 09:00:28;;;;;;;3.87;3.30;;;16.60;60.40;;;;;;5013867;28;20861;-43
2021/05/12 09:02:54;;;;;;;5.33;3.30;;;16.60;60.30;;;;;;5011249;28;20467;-41
2021/05/12 09:05:20;;;;;;;6.10;2.93;;;16.50;60.40;;;;;;5012022;28;20194;-42
2021/05/12 09:07:47;;;;;;;3.03;2.60;;;16.60;60.90;;;;;;5005700;28;20206;-44
2021/05/12 09:10:14;;;;;;;3.40;3.10;;;16.40;60.80;;;;;;4992954;28;20414;-43
2021/05/12 09:12:52;;;;;;;4.93;3.33;;;16.40;61.00;;;;;;4998363;28;20465;-43
2021/05/12 09:15:21;;;;;;;7.40;3.17;;;16.50;60.70;;;;;;5017593;28;20939;-42
2021/05/12 09:17:48;;;;;;;4.73;4.17;;;16.80;61.10;;;;;;5008989;28;21282;-43
2021/05/12 09:20:20;;;;;;;4.93;3.63;;;16.70;60.40;;;;;;5009735;28;20444;-42
2021/05/12 09:23:12;;;;;;;4.57;3.67;;;16.70;60.20;;;;;;5008340;28;20471;-45
2021/05/12 09:25:40;;;;;;;4.60;3.13;;;16.70;60.50;;;;;;5003740;28;20437;-42
2021/05/12 09:28:13;;;;;;;6.83;3.50;;;16.70;60.20;;;;;;5009804;28;20517;-43
2021/05/12 09:30:41;;;;;;;9.43;3.13;;;16.80;59.90;;;;;;5003760;28;20798;-42
2021/05/12 09:33:08;;;;;;;4.50;3.77;;;16.90;59.70;;;;;;5012151;28;20530;-43
2021/05/12 09:35:41;;;;;;;5.73;3.87;;;17.00;59.50;;;;;;5012757;28;20477;-44
2021/05/12 09:38:18;;;;;;;3.30;2.60;;;17.20;59.40;;;;;;5014489;28;20502;-41
2021/05/12 09:40:44;;;;;;;5.80;3.73;;;17.20;59.10;;;;;;5010993;28;20459;-43
2021/05/12 09:43:12;;;;;;;5.40;3.13;;;17.00;59.00;;;;;;5009805;28;20437;-43
2021/05/12 09:45:38;;;;;;;5.23;3.00;;;16.80;59.30;;;;;;5008973;28;20682;-43
2021/05/12 09:48:04;;;;;;;4.13;3.70;;;16.80;59.40;;;;;;5018091;28;20468;-43
2021/05/12 09:50:38;;;;;;;3.90;3.50;;;16.80;59.50;;;;;;5014963;28;20433;-41
2021/05/12 09:53:08;;;;;;;4.50;3.23;;;16.80;59.50;;;;;;5011179;28;20500;-42
2021/05/12 09:55:38;;;;;;;5.00;3.53;;;16.70;59.70;;;;;;5001418;28;20454;-43
2021/05/12 09:58:11;;;;;;;4.00;3.70;;;16.50;59.30;;;;;;5007473;28;20440;-41
2021/05/12 10:00:39;;;;;;;3.90;2.93;;;16.60;59.60;;;;;;5010431;28;20448;-43
2021/05/12 10:03:06;;;;;;;4.23;3.10;;;16.60;59.90;;;;;;5011324;28;20436;-42
2021/05/12 10:05:50;;;;;;;3.83;3.37;;;16.70;59.90;;;;;;5014718;28;20448;-43
2021/05/12 10:08:26;;;;;;;4.77;3.50;;;16.70;59.80;;;;;;5010259;28;20436;-43
2021/05/12 10:11:01;;;;;;;4.43;3.17;;;16.90;59.60;;;;;;5011242;28;20802;-45
2021/05/12 10:13:27;;;;;;;4.37;3.40;;;16.90;59.30;;;;;;5009628;28;20971;-43
2021/05/12 10:15:53;;;;;;;8.27;3.90;;;17.10;59.50;;;;;;5010091;28;20429;-42
2021/05/12 10:18:19;;;;;;;6.00;3.20;;;17.20;59.40;;;;;;4997679;28;20434;-42
2021/05/12 10:20:44;;;;;;;3.90;3.60;;;17.20;58.90;;;;;;5002703;28;20271;-44
2021/05/12 10:23:11;;;;;;;8.17;3.53;;;17.00;59.10;;;;;;5006631;28;20287;-42
2021/05/12 10:25:38;;;;;;;3.87;3.00;;;17.00;59.20;;;;;;5008157;28;20264;-42
2021/05/12 10:28:04;;;;;;;5.40;3.53;;;17.20;59.40;;;;;;5010201;28;20819;-44
2021/05/12 10:30:30;;;;;;;3.90;3.60;;;17.10;59.00;;;;;;5010958;28;20433;-47
2021/05/12 10:32:58;;;;;;;3.67;2.70;;;17.10;58.80;;;;;;5011489;28;21124;-42
2021/05/12 10:35:29;;;;;;;4.57;3.53;;;17.10;58.80;;;;;;5009332;28;20201;-42
2021/05/12 10:37:55;;;;;;;4.00;3.60;;;17.10;59.40;;;;;;5016586;28;20484;-41
2021/05/12 10:40:34;;;;;;;5.70;3.43;;;17.30;59.30;;;;;;5020001;28;20428;-42
2021/05/12 10:43:21;;;;;;;4.47;3.67;;;17.40;59.30;;;;;;5011327;28;20432;-44
2021/05/12 10:45:52;;;;;;;4.13;3.40;;;17.60;59.00;;;;;;5016561;28;20467;-42
2021/05/12 10:48:37;;;;;;;4.70;3.57;;;17.70;58.30;;;;;;5019105;28;20440;-43
2021/05/12 10:51:08;;;;;;;6.10;3.57;;;17.80;58.50;;;;;;5012986;28;20480;-43
2021/05/12 10:53:45;;;;;;;4.03;3.63;;;17.80;57.90;;;;;;5011403;28;20479;-43
2021/05/12 10:56:13;;;;;;;4.30;3.33;;;17.70;57.90;;;;;;5002221;28;20920;-43
2021/05/12 10:58:59;;;;;;;4.53;3.60;;;17.80;58.00;;;;;;5007019;28;20441;-42
2021/05/12 11:01:34;;;;;;;8.97;3.87;;;17.90;57.90;;;;;;5010304;28;20512;-43
2021/05/12 11:04:09;;;;;;;4.80;3.63;;;17.80;57.60;;;;;;4998529;28;20428;-42
2021/05/12 11:06:34;;;;;;;3.60;3.30;;;17.90;57.80;;;;;;5010704;28;20444;-44
2021/05/12 11:09:06;;;;;;;4.50;3.50;;;17.80;57.80;;;;;;5005085;28;20438;-42
2021/05/12 11:11:37;;;;;;;6.70;4.00;;;18.00;57.80;;;;;;5010339;28;20198;-42
2021/05/12 11:14:22;;;;;;;9.83;3.63;;;17.90;57.50;;;;;;5009914;28;20523;-42
2021/05/12 11:17:18;;;;;;;4.10;3.70;;;17.90;57.90;;;;;;5006050;28;20480;-42
2021/05/12 11:33:26;;;;;;;4.40;4.00;;;18.60;55.20;;;;;;5010079;28;20488;-42
2021/05/12 11:35:59;;;;;;;7.83;3.50;;;18.60;55.60;;;;;;5012651;28;20487;-42
2021/05/12 11:38:25;;;;;;;3.60;3.30;;;18.60;55.50;;;;;;5008384;28;20472;-42
2021/05/12 11:41:05;;;;;;;5.97;3.27;;;18.50;55.20;;;;;;5010186;28;20460;-43
2021/05/12 11:43:49;;;;;;;3.73;3.40;;;18.50;55.60;;;;;;5015339;28;20205;-44
2021/05/12 11:46:25;;;;;;;4.07;3.67;;;18.50;54.70;;;;;;5007375;28;20429;-44
2021/05/12 11:48:56;;;;;;;3.53;3.00;;;18.30;55.00;;;;;;5016029;28;20771;-45
2021/05/12 11:51:41;;;;;;;5.50;3.73;;;18.50;55.60;;;;;;5021128;28;20443;-44
2021/05/12 11:54:23;;;;;;;4.53;4.00;;;18.70;55.30;;;;;;5021739;28;20537;-45
2021/05/12 11:56:56;;;;;;;3.80;3.00;;;18.70;54.60;;;;;;5015835;28;20437;-43
2021/05/12 11:59:33;;;;;;;4.47;3.60;;;18.90;54.80;;;;;;5017907;28;20457;-43
2021/05/12 12:02:13;;;;;;;4.00;3.40;;;18.90;54.20;;;;;;5012760;28;20448;-43
2021/05/12 12:04:46;;;;;;;4.17;3.77;;;18.90;54.20;;;;;;5007373;28;20527;-43
2021/05/12 12:07:12;;;;;;;4.83;3.60;;;19.10;54.30;;;;;;5006821;28;20577;-44
2021/05/12 12:09:37;;;;;;;5.63;3.90;;;19.10;53.90;;;;;;5013009;28;20535;-43
2021/05/12 12:12:03;;;;;;;3.60;3.30;;;19.20;54.10;;;;;;5022487;28;20205;-43
2021/05/12 12:14:34;;;;;;;5.00;3.73;;;19.30;53.90;;;;;;5018281;28;20227;-43
2021/05/12 12:17:01;;;;;;;4.60;3.53;;;19.10;53.90;;;;;;5013901;28;20431;-44
2021/05/12 12:19:27;;;;;;;4.20;3.80;;;19.00;54.20;;;;;;5022889;28;20488;-43
2021/05/12 12:21:56;;;;;;;5.33;3.60;;;19.30;54.50;;;;;;5020641;28;20433;-46
2021/05/12 12:24:27;;;;;;;4.03;3.33;;;19.30;53.60;;;;;;5015771;28;20453;-46
2021/05/12 12:26:55;;;;;;;5.30;4.40;;;19.50;53.20;;;;;;5017984;28;20444;-44
2021/05/12 12:29:28;;;;;;;5.70;4.00;;;19.50;53.50;;;;;;5012310;28;20812;-44
2021/05/12 12:31:56;;;;;;;6.00;4.10;;;19.50;53.00;;;;;;5020368;28;20575;-46
2021/05/12 12:34:31;;;;;;;4.07;3.60;;;19.60;53.70;;;;;;5007135;28;20489;-44
2021/05/12 12:37:06;;;;;;;6.07;3.67;;;19.70;53.70;;;;;;5018846;28;20467;-45
2021/05/12 12:39:39;;;;;;;4.40;3.00;;;19.90;53.40;;;;;;5014579;28;20464;-43
2021/05/12 12:42:06;;;;;;;5.20;4.70;;;20.00;53.50;;;;;;5019535;28;20450;-43
2021/05/12 12:44:33;;;;;;;7.63;4.17;;;20.10;53.30;;;;;;5017808;28;20432;-44
2021/05/12 12:46:59;;;;;;;5.70;3.73;;;20.20;53.10;;;;;;5013893;28;20791;-44
2021/05/12 12:49:36;;;;;;;4.33;3.50;;;20.20;53.30;;;;;;5021712;28;20447;-44
2021/05/12 12:52:10;;;;;;;4.43;4.03;;;20.40;54.80;;;;;;5019310;28;20204;-46
2021/05/12 12:57:16;;;;;;;4.10;3.70;;;20.20;52.90;;;;;;5013225;28;20979;-45
2021/05/12 13:00:00;;;;;;;5.23;3.47;;;20.00;52.60;;;;;;4996111;28;20786;-45
2021/05/12 13:02:25;;;;;;;6.30;4.73;;;20.20;53.30;;;;;;5008684;28;20455;-43
2021/05/12 13:05:10;;;;;;;4.83;4.27;;;20.20;52.60;;;;;;5002737;28;20439;-44
2021/05/12 13:07:36;;;;;;;6.53;3.77;;;20.20;52.80;;;;;;5012145;28;20201;-43
2021/05/12 13:10:39;;;;;;;6.97;4.43;;;20.20;52.80;;;;;;5008468;28;20436;-44
2021/05/12 13:13:05;;;;;;;6.20;3.70;;;20.40;52.60;;;;;;4942703;28;20492;-42
2021/05/12 13:15:34;;;;;;;4.13;3.63;;;20.40;52.60;;;;;;4991783;28;20883;-43
2021/05/12 13:18:02;;;;;;;4.00;3.70;;;20.10;52.30;;;;;;5008798;28;20539;-44